sensor_id;sensor_type;location;lat;lon;timestamp;temperature;humidity
971;DHT22;28939;45.540;-122.632;2022-09-01T00:00:59;33.20;55.00
971;DHT22;28939;45.540;-122.632;2022-09-01T00:03:31;33.30;53.00
971;DHT22;28939;45.540;-122.632;2022-09-01T00:06:02;33.30;54.20
971;DHT22;28939;45.540;-122.632;2022-09-01T00:08:38;33.10;53.60
971;DHT22;28939;45.540;-122.632;2022-09-01T00:11:09;33.20;54.40
971;DHT22;28939;45.540;-122.632;2022-09-01T00:13:40;33.20;53.10
971;DHT22;28939;45.540;-122.632;2022-09-01T00:16:11;33.10;53.30
971;DHT22;28939;45.540;-122.632;2022-09-01T00:18:46;33.20;52.40
971;DHT22;28939;45.540;-122.632;2022-09-01T00:21:20;33.20;54.20
971;DHT22;28939;45.540;-122.632;2022-09-01T00:23:53;33.30;53.70
971;DHT22;28939;45.540;-122.632;2022-09-01T00:26:23;33.20;54.40
971;DHT22;28939;45.540;-122.632;2022-09-01T00:28:54;33.10;54.30
971;DHT22;28939;45.540;-122.632;2022-09-01T00:31:25;32.90;55.40
971;DHT22;28939;45.540;-122.632;2022-09-01T00:33:56;32.90;53.70
971;DHT22;28939;45.540;-122.632;2022-09-01T00:36:27;32.80;54.20
971;DHT22;28939;45.540;-122.632;2022-09-01T00:39:00;32.70;55.80
971;DHT22;28939;45.540;-122.632;2022-09-01T00:41:32;32.60;55.20
971;DHT22;28939;45.540;-122.632;2022-09-01T00:44:05;32.60;54.40
971;DHT22;28939;45.540;-122.632;2022-09-01T00:46:38;32.50;55.30
971;DHT22;28939;45.540;-122.632;2022-09-01T00:49:25;32.50;54.40
971;DHT22;28939;45.540;-122.632;2022-09-01T00:52:00;32.50;54.90
971;DHT22;28939;45.540;-122.632;2022-09-01T00:54:37;32.50;54.90
971;DHT22;28939;45.540;-122.632;2022-09-01T00:57:10;32.50;53.50
971;DHT22;28939;45.540;-122.632;2022-09-01T00:59:45;32.40;54.50
971;DHT22;28939;45.540;-122.632;2022-09-01T01:02:17;32.50;54.40
971;DHT22;28939;45.540;-122.632;2022-09-01T01:04:48;32.60;57.80
971;DHT22;28939;45.540;-122.632;2022-09-01T01:07:22;32.50;56.60
971;DHT22;28939;45.540;-122.632;2022-09-01T01:09:56;32.40;55.70
971;DHT22;28939;45.540;-122.632;2022-09-01T01:12:27;32.40;53.60
971;DHT22;28939;45.540;-122.632;2022-09-01T01:14:58;32.40;56.30
971;DHT22;28939;45.540;-122.632;2022-09-01T01:17:31;32.30;58.00
971;DHT22;28939;45.540;-122.632;2022-09-01T01:20:03;32.10;55.70
971;DHT22;28939;45.540;-122.632;2022-09-01T01:22:56;32.10;53.90
971;DHT22;28939;45.540;-122.632;2022-09-01T01:25:38;32.20;54.20
971;DHT22;28939;45.540;-122.632;2022-09-01T01:28:12;31.90;60.60
971;DHT22;28939;45.540;-122.632;2022-09-01T01:30:46;31.70;58.50
971;DHT22;28939;45.540;-122.632;2022-09-01T01:33:18;31.70;56.70
971;DHT22;28939;45.540;-122.632;2022-09-01T01:35:52;31.60;62.00
971;DHT22;28939;45.540;-122.632;2022-09-01T01:38:25;31.40;60.00
971;DHT22;28939;45.540;-122.632;2022-09-01T01:40:59;31.50;55.90
971;DHT22;28939;45.540;-122.632;2022-09-01T01:43:31;31.50;57.40
971;DHT22;28939;45.540;-122.632;2022-09-01T01:46:04;31.40;58.00
971;DHT22;28939;45.540;-122.632;2022-09-01T01:48:37;31.30;61.00
971;DHT22;28939;45.540;-122.632;2022-09-01T01:51:09;31.10;59.20
971;DHT22;28939;45.540;-122.632;2022-09-01T01:53:41;31.00;62.20
971;DHT22;28939;45.540;-122.632;2022-09-01T01:56:13;30.90;68.30
971;DHT22;28939;45.540;-122.632;2022-09-01T01:58:46;30.60;71.30
971;DHT22;28939;45.540;-122.632;2022-09-01T02:01:16;30.30;73.80
971;DHT22;28939;45.540;-122.632;2022-09-01T02:03:47;30.00;75.30
971;DHT22;28939;45.540;-122.632;2022-09-01T02:06:21;29.80;76.00
971;DHT22;28939;45.540;-122.632;2022-09-01T02:08:52;29.40;77.70
971;DHT22;28939;45.540;-122.632;2022-09-01T02:11:27;29.20;78.60
971;DHT22;28939;45.540;-122.632;2022-09-01T02:14:00;29.00;80.10
971;DHT22;28939;45.540;-122.632;2022-09-01T02:16:31;28.80;81.40
971;DHT22;28939;45.540;-122.632;2022-09-01T02:19:04;28.70;81.80
971;DHT22;28939;45.540;-122.632;2022-09-01T02:21:36;28.50;82.50
971;DHT22;28939;45.540;-122.632;2022-09-01T02:24:12;28.40;82.90
971;DHT22;28939;45.540;-122.632;2022-09-01T02:26:45;28.30;83.80
971;DHT22;28939;45.540;-122.632;2022-09-01T02:29:19;28.20;84.80
971;DHT22;28939;45.540;-122.632;2022-09-01T02:31:52;28.00;85.70
971;DHT22;28939;45.540;-122.632;2022-09-01T02:34:24;27.80;86.80
971;DHT22;28939;45.540;-122.632;2022-09-01T02:36:56;27.70;86.80
971;DHT22;28939;45.540;-122.632;2022-09-01T02:39:29;27.40;87.80
971;DHT22;28939;45.540;-122.632;2022-09-01T02:42:02;27.30;89.00
971;DHT22;28939;45.540;-122.632;2022-09-01T02:44:33;27.20;90.00
971;DHT22;28939;45.540;-122.632;2022-09-01T02:47:08;27.00;90.30
971;DHT22;28939;45.540;-122.632;2022-09-01T02:49:39;27.00;90.50
971;DHT22;28939;45.540;-122.632;2022-09-01T02:52:10;26.90;90.50
971;DHT22;28939;45.540;-122.632;2022-09-01T02:54:43;26.70;90.80
971;DHT22;28939;45.540;-122.632;2022-09-01T02:57:18;26.50;91.50
971;DHT22;28939;45.540;-122.632;2022-09-01T02:59:52;26.30;91.70
971;DHT22;28939;45.540;-122.632;2022-09-01T03:02:26;26.30;92.10
971;DHT22;28939;45.540;-122.632;2022-09-01T03:04:57;26.20;92.50
971;DHT22;28939;45.540;-122.632;2022-09-01T03:07:29;26.10;92.60
971;DHT22;28939;45.540;-122.632;2022-09-01T03:10:00;25.90;93.20
971;DHT22;28939;45.540;-122.632;2022-09-01T03:12:38;25.80;93.90
971;DHT22;28939;45.540;-122.632;2022-09-01T03:15:09;25.70;94.30
971;DHT22;28939;45.540;-122.632;2022-09-01T03:17:40;25.60;94.20
971;DHT22;28939;45.540;-122.632;2022-09-01T03:20:11;25.40;94.60
971;DHT22;28939;45.540;-122.632;2022-09-01T03:22:42;25.30;95.10
971;DHT22;28939;45.540;-122.632;2022-09-01T03:25:15;25.20;95.60
971;DHT22;28939;45.540;-122.632;2022-09-01T03:27:47;25.10;96.00
971;DHT22;28939;45.540;-122.632;2022-09-01T03:30:19;25.00;96.20
971;DHT22;28939;45.540;-122.632;2022-09-01T03:32:50;25.00;96.30
971;DHT22;28939;45.540;-122.632;2022-09-01T03:35:21;24.90;96.80
971;DHT22;28939;45.540;-122.632;2022-09-01T03:37:52;24.80;97.10
971;DHT22;28939;45.540;-122.632;2022-09-01T03:40:29;24.70;97.20
971;DHT22;28939;45.540;-122.632;2022-09-01T03:43:05;24.60;97.60
971;DHT22;28939;45.540;-122.632;2022-09-01T03:45:37;24.50;97.90
971;DHT22;28939;45.540;-122.632;2022-09-01T03:48:09;24.40;98.50
971;DHT22;28939;45.540;-122.632;2022-09-01T03:50:41;24.20;98.70
971;DHT22;28939;45.540;-122.632;2022-09-01T03:53:15;24.10;99.20
971;DHT22;28939;45.540;-122.632;2022-09-01T03:55:48;24.00;99.80
971;DHT22;28939;45.540;-122.632;2022-09-01T03:58:24;23.90;99.90
971;DHT22;28939;45.540;-122.632;2022-09-01T04:00:56;23.80;99.90
971;DHT22;28939;45.540;-122.632;2022-09-01T04:03:32;23.70;99.90
971;DHT22;28939;45.540;-122.632;2022-09-01T04:06:08;23.60;99.90
971;DHT22;28939;45.540;-122.632;2022-09-01T04:08:40;23.50;99.90
971;DHT22;28939;45.540;-122.632;2022-09-01T04:11:13;23.40;99.90
971;DHT22;28939;45.540;-122.632;2022-09-01T04:13:47;23.30;99.90
971;DHT22;28939;45.540;-122.632;2022-09-01T04:16:20;23.20;99.90
971;DHT22;28939;45.540;-122.632;2022-09-01T04:19:08;23.20;99.90
971;DHT22;28939;45.540;-122.632;2022-09-01T04:21:49;23.10;99.90
971;DHT22;28939;45.540;-122.632;2022-09-01T04:24:20;23.00;99.90
971;DHT22;28939;45.540;-122.632;2022-09-01T04:26:52;23.00;99.90
971;DHT22;28939;45.540;-122.632;2022-09-01T04:29:26;23.00;99.90
971;DHT22;28939;45.540;-122.632;2022-09-01T04:31:59;22.80;99.90
971;DHT22;28939;45.540;-122.632;2022-09-01T04:34:33;22.70;99.90
971;DHT22;28939;45.540;-122.632;2022-09-01T04:37:11;22.60;99.90
971;DHT22;28939;45.540;-122.632;2022-09-01T04:39:47;22.50;99.90
971;DHT22;28939;45.540;-122.632;2022-09-01T04:42:25;22.40;99.90
971;DHT22;28939;45.540;-122.632;2022-09-01T04:44:58;22.40;99.90
971;DHT22;28939;45.540;-122.632;2022-09-01T04:47:37;22.40;99.90
971;DHT22;28939;45.540;-122.632;2022-09-01T04:50:11;22.30;99.90
971;DHT22;28939;45.540;-122.632;2022-09-01T04:52:45;22.30;99.90
971;DHT22;28939;45.540;-122.632;2022-09-01T04:55:17;22.20;99.90
971;DHT22;28939;45.540;-122.632;2022-09-01T04:57:48;22.10;99.90
971;DHT22;28939;45.540;-122.632;2022-09-01T05:00:21;22.00;99.90
971;DHT22;28939;45.540;-122.632;2022-09-01T05:02:57;22.00;99.90
971;DHT22;28939;45.540;-122.632;2022-09-01T05:05:36;21.90;99.90
971;DHT22;28939;45.540;-122.632;2022-09-01T05:08:10;21.90;99.90
971;DHT22;28939;45.540;-122.632;2022-09-01T05:10:52;21.80;99.90
971;DHT22;28939;45.540;-122.632;2022-09-01T05:13:24;21.70;99.90
971;DHT22;28939;45.540;-122.632;2022-09-01T05:16:02;21.60;99.90
971;DHT22;28939;45.540;-122.632;2022-09-01T05:18:34;21.50;99.90
971;DHT22;28939;45.540;-122.632;2022-09-01T05:21:06;21.40;99.90
971;DHT22;28939;45.540;-122.632;2022-09-01T05:23:38;21.40;99.90
971;DHT22;28939;45.540;-122.632;2022-09-01T05:26:12;21.40;99.90
971;DHT22;28939;45.540;-122.632;2022-09-01T05:28:46;21.30;99.90
971;DHT22;28939;45.540;-122.632;2022-09-01T05:31:20;21.20;99.90
971;DHT22;28939;45.540;-122.632;2022-09-01T05:33:51;21.20;99.90
971;DHT22;28939;45.540;-122.632;2022-09-01T05:36:23;21.10;99.90
971;DHT22;28939;45.540;-122.632;2022-09-01T05:38:54;21.10;99.90
971;DHT22;28939;45.540;-122.632;2022-09-01T05:41:26;21.00;99.90
971;DHT22;28939;45.540;-122.632;2022-09-01T05:43:57;21.00;99.90
971;DHT22;28939;45.540;-122.632;2022-09-01T05:46:30;20.90;99.90
971;DHT22;28939;45.540;-122.632;2022-09-01T05:49:01;20.80;99.90
971;DHT22;28939;45.540;-122.632;2022-09-01T05:51:34;20.80;99.90
971;DHT22;28939;45.540;-122.632;2022-09-01T05:54:19;20.70;99.90
971;DHT22;28939;45.540;-122.632;2022-09-01T05:56:50;20.70;99.90
971;DHT22;28939;45.540;-122.632;2022-09-01T05:59:21;20.60;99.90
971;DHT22;28939;45.540;-122.632;2022-09-01T06:01:55;20.60;99.90
971;DHT22;28939;45.540;-122.632;2022-09-01T06:04:26;20.50;99.90
971;DHT22;28939;45.540;-122.632;2022-09-01T06:06:57;20.50;99.90
971;DHT22;28939;45.540;-122.632;2022-09-01T06:09:37;20.40;99.90
971;DHT22;28939;45.540;-122.632;2022-09-01T06:12:08;20.40;99.90
971;DHT22;28939;45.540;-122.632;2022-09-01T06:14:46;20.20;99.90
971;DHT22;28939;45.540;-122.632;2022-09-01T06:17:20;20.20;99.90
971;DHT22;28939;45.540;-122.632;2022-09-01T06:19:53;20.20;99.90
971;DHT22;28939;45.540;-122.632;2022-09-01T06:22:25;20.20;99.90
971;DHT22;28939;45.540;-122.632;2022-09-01T06:24:57;20.20;99.90
971;DHT22;28939;45.540;-122.632;2022-09-01T06:27:29;20.20;99.90
971;DHT22;28939;45.540;-122.632;2022-09-01T06:30:01;20.10;99.90
971;DHT22;28939;45.540;-122.632;2022-09-01T06:32:45;20.10;99.90
971;DHT22;28939;45.540;-122.632;2022-09-01T06:35:17;20.20;99.90
971;DHT22;28939;45.540;-122.632;2022-09-01T06:37:48;20.10;99.90
971;DHT22;28939;45.540;-122.632;2022-09-01T06:40:20;20.10;99.90
971;DHT22;28939;45.540;-122.632;2022-09-01T06:42:53;20.10;99.90
971;DHT22;28939;45.540;-122.632;2022-09-01T06:45:24;20.00;99.90
971;DHT22;28939;45.540;-122.632;2022-09-01T06:47:56;20.00;99.90
971;DHT22;28939;45.540;-122.632;2022-09-01T06:50:27;19.90;99.90
971;DHT22;28939;45.540;-122.632;2022-09-01T06:53:18;19.80;99.90
971;DHT22;28939;45.540;-122.632;2022-09-01T06:56:06;19.90;99.90
971;DHT22;28939;45.540;-122.632;2022-09-01T06:58:41;19.80;99.90
971;DHT22;28939;45.540;-122.632;2022-09-01T07:01:16;19.80;99.90
971;DHT22;28939;45.540;-122.632;2022-09-01T07:03:51;19.70;99.90
971;DHT22;28939;45.540;-122.632;2022-09-01T07:06:24;19.70;99.90
971;DHT22;28939;45.540;-122.632;2022-09-01T07:09:17;19.60;99.90
971;DHT22;28939;45.540;-122.632;2022-09-01T07:12:08;19.60;99.90
971;DHT22;28939;45.540;-122.632;2022-09-01T07:14:55;19.50;99.90
971;DHT22;28939;45.540;-122.632;2022-09-01T07:17:47;19.50;99.90
971;DHT22;28939;45.540;-122.632;2022-09-01T07:20:23;19.40;99.90
971;DHT22;28939;45.540;-122.632;2022-09-01T07:22:56;19.40;99.90
971;DHT22;28939;45.540;-122.632;2022-09-01T07:25:50;19.30;99.90
971;DHT22;28939;45.540;-122.632;2022-09-01T07:28:31;19.30;99.90
971;DHT22;28939;45.540;-122.632;2022-09-01T07:31:04;19.20;99.90
971;DHT22;28939;45.540;-122.632;2022-09-01T07:33:57;19.20;99.90
971;DHT22;28939;45.540;-122.632;2022-09-01T07:36:50;19.30;99.90
971;DHT22;28939;45.540;-122.632;2022-09-01T07:39:48;19.30;99.90
971;DHT22;28939;45.540;-122.632;2022-09-01T07:42:20;19.30;99.90
971;DHT22;28939;45.540;-122.632;2022-09-01T07:45:12;19.30;99.90
971;DHT22;28939;45.540;-122.632;2022-09-01T07:48:00;19.20;99.90
971;DHT22;28939;45.540;-122.632;2022-09-01T07:50:35;19.10;99.90
971;DHT22;28939;45.540;-122.632;2022-09-01T07:53:30;19.00;99.90
971;DHT22;28939;45.540;-122.632;2022-09-01T07:56:06;19.10;99.90
971;DHT22;28939;45.540;-122.632;2022-09-01T07:58:38;19.10;99.90
971;DHT22;28939;45.540;-122.632;2022-09-01T08:01:10;19.10;99.90
971;DHT22;28939;45.540;-122.632;2022-09-01T08:03:45;19.00;99.90
971;DHT22;28939;45.540;-122.632;2022-09-01T08:06:19;18.90;99.90
971;DHT22;28939;45.540;-122.632;2022-09-01T08:08:55;18.90;99.90
971;DHT22;28939;45.540;-122.632;2022-09-01T08:11:29;18.90;99.90
971;DHT22;28939;45.540;-122.632;2022-09-01T08:14:20;18.80;99.90
971;DHT22;28939;45.540;-122.632;2022-09-01T08:16:51;18.80;99.90
971;DHT22;28939;45.540;-122.632;2022-09-01T08:19:22;18.70;99.90
971;DHT22;28939;45.540;-122.632;2022-09-01T08:21:53;18.60;99.90
971;DHT22;28939;45.540;-122.632;2022-09-01T08:24:25;18.60;99.90
971;DHT22;28939;45.540;-122.632;2022-09-01T08:26:56;18.60;99.90
971;DHT22;28939;45.540;-122.632;2022-09-01T08:29:26;18.60;99.90
971;DHT22;28939;45.540;-122.632;2022-09-01T08:31:57;18.60;99.90
971;DHT22;28939;45.540;-122.632;2022-09-01T08:34:28;18.50;99.90
971;DHT22;28939;45.540;-122.632;2022-09-01T08:37:01;18.40;99.90
971;DHT22;28939;45.540;-122.632;2022-09-01T08:39:34;18.40;99.90
971;DHT22;28939;45.540;-122.632;2022-09-01T08:42:10;18.40;99.90
971;DHT22;28939;45.540;-122.632;2022-09-01T08:44:49;18.40;99.90
971;DHT22;28939;45.540;-122.632;2022-09-01T08:47:23;18.40;99.90
971;DHT22;28939;45.540;-122.632;2022-09-01T08:50:07;18.30;99.90
971;DHT22;28939;45.540;-122.632;2022-09-01T08:52:42;18.30;99.90
971;DHT22;28939;45.540;-122.632;2022-09-01T08:55:18;18.30;99.90
971;DHT22;28939;45.540;-122.632;2022-09-01T08:57:55;18.30;99.90
971;DHT22;28939;45.540;-122.632;2022-09-01T09:00:28;18.20;99.90
971;DHT22;28939;45.540;-122.632;2022-09-01T09:03:09;18.20;99.90
971;DHT22;28939;45.540;-122.632;2022-09-01T09:05:56;18.10;99.90
971;DHT22;28939;45.540;-122.632;2022-09-01T09:08:48;18.10;99.90
971;DHT22;28939;45.540;-122.632;2022-09-01T09:14:43;18.00;99.90
971;DHT22;28939;45.540;-122.632;2022-09-01T09:17:18;17.90;99.90
971;DHT22;28939;45.540;-122.632;2022-09-01T09:19:49;17.90;99.90
971;DHT22;28939;45.540;-122.632;2022-09-01T09:22:20;17.90;99.90
971;DHT22;28939;45.540;-122.632;2022-09-01T09:24:52;17.90;99.90
971;DHT22;28939;45.540;-122.632;2022-09-01T09:27:28;17.90;99.90
971;DHT22;28939;45.540;-122.632;2022-09-01T09:30:00;17.80;99.90
971;DHT22;28939;45.540;-122.632;2022-09-01T09:32:46;17.80;99.90
971;DHT22;28939;45.540;-122.632;2022-09-01T09:35:39;17.70;99.90
971;DHT22;28939;45.540;-122.632;2022-09-01T09:38:19;17.70;99.90
971;DHT22;28939;45.540;-122.632;2022-09-01T09:41:01;17.70;99.90
971;DHT22;28939;45.540;-122.632;2022-09-01T09:43:50;17.80;99.90
971;DHT22;28939;45.540;-122.632;2022-09-01T09:46:34;17.80;99.90
971;DHT22;28939;45.540;-122.632;2022-09-01T09:49:11;17.70;99.90
971;DHT22;28939;45.540;-122.632;2022-09-01T09:51:43;17.70;99.90
971;DHT22;28939;45.540;-122.632;2022-09-01T09:54:20;17.50;99.90
971;DHT22;28939;45.540;-122.632;2022-09-01T09:57:05;17.50;99.90
971;DHT22;28939;45.540;-122.632;2022-09-01T09:59:43;17.50;99.90
971;DHT22;28939;45.540;-122.632;2022-09-01T10:02:33;17.50;99.90
971;DHT22;28939;45.540;-122.632;2022-09-01T10:05:26;17.40;99.90
971;DHT22;28939;45.540;-122.632;2022-09-01T10:07:57;17.50;99.90
971;DHT22;28939;45.540;-122.632;2022-09-01T10:10:35;17.50;99.90
971;DHT22;28939;45.540;-122.632;2022-09-01T10:13:10;17.50;99.90
971;DHT22;28939;45.540;-122.632;2022-09-01T10:15:46;17.30;99.90
971;DHT22;28939;45.540;-122.632;2022-09-01T10:18:20;17.30;99.90
971;DHT22;28939;45.540;-122.632;2022-09-01T10:21:00;17.20;99.90
971;DHT22;28939;45.540;-122.632;2022-09-01T10:23:33;17.10;99.90
971;DHT22;28939;45.540;-122.632;2022-09-01T10:26:11;17.10;99.90
971;DHT22;28939;45.540;-122.632;2022-09-01T10:28:50;17.00;99.90
971;DHT22;28939;45.540;-122.632;2022-09-01T10:31:24;17.10;99.90
971;DHT22;28939;45.540;-122.632;2022-09-01T10:34:02;17.00;99.90
971;DHT22;28939;45.540;-122.632;2022-09-01T10:36:34;17.00;99.90
971;DHT22;28939;45.540;-122.632;2022-09-01T10:39:10;17.00;99.90
971;DHT22;28939;45.540;-122.632;2022-09-01T10:41:49;17.00;99.90
971;DHT22;28939;45.540;-122.632;2022-09-01T10:44:29;17.00;99.90
971;DHT22;28939;45.540;-122.632;2022-09-01T10:47:09;17.00;99.90
971;DHT22;28939;45.540;-122.632;2022-09-01T10:49:58;17.00;99.90
971;DHT22;28939;45.540;-122.632;2022-09-01T10:53:04;16.90;99.90
971;DHT22;28939;45.540;-122.632;2022-09-01T10:55:59;16.90;99.90
971;DHT22;28939;45.540;-122.632;2022-09-01T10:59:06;16.90;99.90
971;DHT22;28939;45.540;-122.632;2022-09-01T11:02:17;16.80;99.90
971;DHT22;28939;45.540;-122.632;2022-09-01T11:05:14;16.80;99.90
971;DHT22;28939;45.540;-122.632;2022-09-01T11:07:45;16.70;99.90
971;DHT22;28939;45.540;-122.632;2022-09-01T11:10:51;16.70;99.90
971;DHT22;28939;45.540;-122.632;2022-09-01T11:13:42;16.70;99.90
971;DHT22;28939;45.540;-122.632;2022-09-01T11:16:36;16.70;99.90
971;DHT22;28939;45.540;-122.632;2022-09-01T11:19:39;16.60;99.90
971;DHT22;28939;45.540;-122.632;2022-09-01T11:22:26;16.60;99.90
971;DHT22;28939;45.540;-122.632;2022-09-01T11:31:24;16.70;99.90
971;DHT22;28939;45.540;-122.632;2022-09-01T11:34:19;16.70;99.90
971;DHT22;28939;45.540;-122.632;2022-09-01T11:37:01;16.60;99.90
971;DHT22;28939;45.540;-122.632;2022-09-01T11:39:41;16.60;99.90
971;DHT22;28939;45.540;-122.632;2022-09-01T11:42:18;16.50;99.90
971;DHT22;28939;45.540;-122.632;2022-09-01T11:44:53;16.50;99.90
971;DHT22;28939;45.540;-122.632;2022-09-01T11:47:29;16.50;99.90
971;DHT22;28939;45.540;-122.632;2022-09-01T11:50:02;16.40;99.90
971;DHT22;28939;45.540;-122.632;2022-09-01T11:52:37;16.40;99.90
971;DHT22;28939;45.540;-122.632;2022-09-01T11:55:09;16.40;99.90
971;DHT22;28939;45.540;-122.632;2022-09-01T11:57:40;16.40;99.90
971;DHT22;28939;45.540;-122.632;2022-09-01T12:00:12;16.30;99.90
971;DHT22;28939;45.540;-122.632;2022-09-01T12:02:46;16.30;99.90
971;DHT22;28939;45.540;-122.632;2022-09-01T12:05:29;16.40;99.90
971;DHT22;28939;45.540;-122.632;2022-09-01T12:08:04;16.50;99.90
971;DHT22;28939;45.540;-122.632;2022-09-01T12:10:42;16.50;99.90
971;DHT22;28939;45.540;-122.632;2022-09-01T12:13:17;16.60;99.90
971;DHT22;28939;45.540;-122.632;2022-09-01T12:15:53;16.70;99.90
971;DHT22;28939;45.540;-122.632;2022-09-01T12:18:45;16.70;99.90
971;DHT22;28939;45.540;-122.632;2022-09-01T12:21:20;16.70;99.90
971;DHT22;28939;45.540;-122.632;2022-09-01T12:23:54;16.70;99.90
971;DHT22;28939;45.540;-122.632;2022-09-01T12:26:39;16.80;99.90
971;DHT22;28939;45.540;-122.632;2022-09-01T12:29:10;16.90;99.90
971;DHT22;28939;45.540;-122.632;2022-09-01T12:31:44;17.00;99.90
971;DHT22;28939;45.540;-122.632;2022-09-01T12:34:37;17.00;99.90
971;DHT22;28939;45.540;-122.632;2022-09-01T12:37:10;17.00;99.90
971;DHT22;28939;45.540;-122.632;2022-09-01T12:39:44;17.10;99.90
971;DHT22;28939;45.540;-122.632;2022-09-01T12:42:25;17.00;99.90
971;DHT22;28939;45.540;-122.632;2022-09-01T12:45:09;17.10;99.90
971;DHT22;28939;45.540;-122.632;2022-09-01T12:47:46;17.10;99.90
971;DHT22;28939;45.540;-122.632;2022-09-01T12:50:45;17.10;99.90
971;DHT22;28939;45.540;-122.632;2022-09-01T12:53:24;17.10;99.90
971;DHT22;28939;45.540;-122.632;2022-09-01T12:56:18;17.10;99.90
971;DHT22;28939;45.540;-122.632;2022-09-01T12:58:50;17.20;99.90
971;DHT22;28939;45.540;-122.632;2022-09-01T13:01:39;17.20;99.90
971;DHT22;28939;45.540;-122.632;2022-09-01T13:04:23;17.20;99.90
971;DHT22;28939;45.540;-122.632;2022-09-01T13:07:00;17.20;99.90
971;DHT22;28939;45.540;-122.632;2022-09-01T13:09:31;17.20;99.90
971;DHT22;28939;45.540;-122.632;2022-09-01T13:12:16;17.30;99.90
971;DHT22;28939;45.540;-122.632;2022-09-01T13:14:48;17.20;99.90
971;DHT22;28939;45.540;-122.632;2022-09-01T13:17:19;17.20;99.90
971;DHT22;28939;45.540;-122.632;2022-09-01T13:19:50;17.30;99.90
971;DHT22;28939;45.540;-122.632;2022-09-01T13:22:21;17.20;99.90
971;DHT22;28939;45.540;-122.632;2022-09-01T13:24:52;17.30;99.90
971;DHT22;28939;45.540;-122.632;2022-09-01T13:27:25;17.20;99.90
971;DHT22;28939;45.540;-122.632;2022-09-01T13:29:56;17.30;99.90
971;DHT22;28939;45.540;-122.632;2022-09-01T13:32:27;17.20;99.90
971;DHT22;28939;45.540;-122.632;2022-09-01T13:34:58;17.30;99.90
971;DHT22;28939;45.540;-122.632;2022-09-01T13:37:29;17.30;99.90
971;DHT22;28939;45.540;-122.632;2022-09-01T13:40:00;17.30;99.90
971;DHT22;28939;45.540;-122.632;2022-09-01T13:42:33;17.30;99.90
971;DHT22;28939;45.540;-122.632;2022-09-01T13:45:04;17.40;99.90
971;DHT22;28939;45.540;-122.632;2022-09-01T13:47:35;17.30;99.90
971;DHT22;28939;45.540;-122.632;2022-09-01T13:50:27;17.40;99.90
971;DHT22;28939;45.540;-122.632;2022-09-01T13:53:17;17.40;99.90
971;DHT22;28939;45.540;-122.632;2022-09-01T13:55:48;17.40;99.90
971;DHT22;28939;45.540;-122.632;2022-09-01T13:58:21;17.40;99.90
971;DHT22;28939;45.540;-122.632;2022-09-01T14:00:51;17.40;99.90
971;DHT22;28939;45.540;-122.632;2022-09-01T14:03:25;17.40;99.90
971;DHT22;28939;45.540;-122.632;2022-09-01T14:05:55;17.30;99.90
971;DHT22;28939;45.540;-122.632;2022-09-01T14:08:26;17.40;99.90
971;DHT22;28939;45.540;-122.632;2022-09-01T14:10:58;17.40;99.90
971;DHT22;28939;45.540;-122.632;2022-09-01T14:13:30;17.30;99.90
971;DHT22;28939;45.540;-122.632;2022-09-01T14:16:04;17.30;99.90
971;DHT22;28939;45.540;-122.632;2022-09-01T14:18:39;17.30;99.90
971;DHT22;28939;45.540;-122.632;2022-09-01T14:21:11;17.30;99.90
971;DHT22;28939;45.540;-122.632;2022-09-01T14:23:42;17.40;99.90
971;DHT22;28939;45.540;-122.632;2022-09-01T14:26:14;17.30;99.90
971;DHT22;28939;45.540;-122.632;2022-09-01T14:28:47;17.30;99.90
971;DHT22;28939;45.540;-122.632;2022-09-01T14:31:18;17.30;99.90
971;DHT22;28939;45.540;-122.632;2022-09-01T14:33:49;17.40;99.90
971;DHT22;28939;45.540;-122.632;2022-09-01T14:36:22;17.40;99.90
971;DHT22;28939;45.540;-122.632;2022-09-01T14:38:53;17.60;99.90
971;DHT22;28939;45.540;-122.632;2022-09-01T14:41:24;17.60;99.90
971;DHT22;28939;45.540;-122.632;2022-09-01T14:43:57;17.50;99.90
971;DHT22;28939;45.540;-122.632;2022-09-01T14:46:30;17.50;99.90
971;DHT22;28939;45.540;-122.632;2022-09-01T14:49:03;17.60;99.90
971;DHT22;28939;45.540;-122.632;2022-09-01T14:51:34;17.60;99.90
971;DHT22;28939;45.540;-122.632;2022-09-01T14:54:26;17.40;99.90
971;DHT22;28939;45.540;-122.632;2022-09-01T14:56:57;17.50;99.90
971;DHT22;28939;45.540;-122.632;2022-09-01T14:59:50;17.50;99.90
971;DHT22;28939;45.540;-122.632;2022-09-01T15:02:20;17.60;99.90
971;DHT22;28939;45.540;-122.632;2022-09-01T15:04:52;17.60;99.90
971;DHT22;28939;45.540;-122.632;2022-09-01T15:07:23;17.80;99.90
971;DHT22;28939;45.540;-122.632;2022-09-01T15:09:54;17.80;99.90
971;DHT22;28939;45.540;-122.632;2022-09-01T15:12:26;17.90;99.90
971;DHT22;28939;45.540;-122.632;2022-09-01T15:15:01;17.90;99.90
971;DHT22;28939;45.540;-122.632;2022-09-01T15:17:31;17.80;99.90
971;DHT22;28939;45.540;-122.632;2022-09-01T15:20:04;17.80;99.90
971;DHT22;28939;45.540;-122.632;2022-09-01T15:22:48;17.90;99.90
971;DHT22;28939;45.540;-122.632;2022-09-01T15:25:19;17.90;99.90
971;DHT22;28939;45.540;-122.632;2022-09-01T15:27:50;17.90;99.90
971;DHT22;28939;45.540;-122.632;2022-09-01T15:30:23;17.80;99.90
971;DHT22;28939;45.540;-122.632;2022-09-01T15:32:54;17.90;99.90
971;DHT22;28939;45.540;-122.632;2022-09-01T15:35:28;17.90;99.90
971;DHT22;28939;45.540;-122.632;2022-09-01T15:37:59;17.90;99.90
971;DHT22;28939;45.540;-122.632;2022-09-01T15:40:30;17.90;99.90
971;DHT22;28939;45.540;-122.632;2022-09-01T15:43:01;17.90;99.90
971;DHT22;28939;45.540;-122.632;2022-09-01T15:45:36;18.00;99.90
971;DHT22;28939;45.540;-122.632;2022-09-01T15:48:07;17.90;99.90
971;DHT22;28939;45.540;-122.632;2022-09-01T15:50:38;17.90;99.90
971;DHT22;28939;45.540;-122.632;2022-09-01T15:53:09;17.80;99.90
971;DHT22;28939;45.540;-122.632;2022-09-01T15:55:45;18.00;99.90
971;DHT22;28939;45.540;-122.632;2022-09-01T15:58:16;18.00;99.90
971;DHT22;28939;45.540;-122.632;2022-09-01T16:00:49;18.10;99.90
971;DHT22;28939;45.540;-122.632;2022-09-01T16:03:20;18.20;99.90
971;DHT22;28939;45.540;-122.632;2022-09-01T16:05:52;18.00;99.90
971;DHT22;28939;45.540;-122.632;2022-09-01T16:08:22;18.10;99.90
971;DHT22;28939;45.540;-122.632;2022-09-01T16:10:53;18.10;99.90
971;DHT22;28939;45.540;-122.632;2022-09-01T16:13:24;18.20;99.90
971;DHT22;28939;45.540;-122.632;2022-09-01T16:16:08;18.20;99.90
971;DHT22;28939;45.540;-122.632;2022-09-01T16:18:47;18.20;99.90